TimeCDT,TemperatureF,Dew PointF,Humidity,Sea Level PressureIn,VisibilityMPH,Wind Direction,Wind SpeedMPH,Gust SpeedMPH,PrecipitationIn,Events,Conditions,WindDirDegrees,DateUTC
12:15 AM,44.6,42.8,93,29.91,0.5,Calm,Calm,-,N/A,Fog,Fog,0,2013-03-31 05:15:00
12:35 AM,44.6,44.6,100,29.92,0.8,Calm,Calm,-,N/A,,Overcast,0,2013-03-31 05:35:00
12:55 AM,46.4,44.6,93,29.92,0.5,Calm,Calm,-,N/A,Fog,Fog,0,2013-03-31 05:55:00
1:15 AM,46.4,44.6,93,29.93,0.5,Calm,Calm,-,N/A,Fog,Fog,0,2013-03-31 06:15:00
1:35 AM,46.4,44.6,93,29.94,1.5,NNW,3.5,-,N/A,,Overcast,340,2013-03-31 06:35:00
1:55 AM,44.6,44.6,100,29.93,3.0,WNW,3.5,-,N/A,,Overcast,290,2013-03-31 06:55:00
2:15 AM,44.6,44.6,100,29.92,3.0,Calm,Calm,-,N/A,,Mostly Cloudy,0,2013-03-31 07:15:00
2:35 AM,46.4,44.6,93,29.92,2.5,NNW,3.5,-,N/A,,Mostly Cloudy,330,2013-03-31 07:35:00
2:55 AM,46.4,44.6,93,29.92,4.0,Calm,Calm,-,N/A,,Mostly Cloudy,0,2013-03-31 07:55:00
3:15 AM,46.4,44.6,93,29.93,3.0,WNW,3.5,-,N/A,,Mostly Cloudy,300,2013-03-31 08:15:00
3:35 AM,46.4,44.6,93,29.93,1.2,NW,4.6,-,N/A,,Overcast,310,2013-03-31 08:35:00
3:55 AM,46.4,44.6,93,29.93,0.5,Calm,Calm,-,N/A,Fog,Fog,0,2013-03-31 08:55:00
4:15 AM,46.4,44.6,93,29.93,0.5,Calm,Calm,-,N/A,Fog,Fog,0,2013-03-31 09:15:00
4:35 AM,46.4,44.6,93,29.92,0.5,SSE,3.5,-,N/A,Fog,Fog,160,2013-03-31 09:35:00
4:55 AM,46.4,44.6,93,29.92,0.2,South,3.5,-,N/A,Fog,Fog,170,2013-03-31 09:55:00
5:15 AM,46.4,44.6,93,29.93,0.2,Calm,Calm,-,N/A,Fog,Fog,0,2013-03-31 10:15:00
5:35 AM,46.4,44.6,93,29.94,0.5,Calm,Calm,-,N/A,Fog,Fog,0,2013-03-31 10:35:00
5:55 AM,46.4,44.6,93,29.95,0.2,Calm,Calm,-,N/A,Fog,Fog,0,2013-03-31 10:55:00
6:15 AM,44.6,44.6,100,29.95,0.2,Calm,Calm,-,N/A,Fog,Fog,0,2013-03-31 11:15:00
6:35 AM,44.6,42.8,93,29.95,0.2,SSE,3.5,-,N/A,Fog,Fog,160,2013-03-31 11:35:00
6:55 AM,44.6,42.8,93,29.95,0.2,SSW,4.6,-,N/A,Fog,Fog,200,2013-03-31 11:55:00
7:15 AM,44.6,42.8,93,29.96,0.5,WSW,4.6,-,N/A,Fog,Fog,240,2013-03-31 12:15:00
7:35 AM,46.4,44.6,93,29.96,7.0,West,6.9,-,N/A,,Clear,260,2013-03-31 12:35:00
7:55 AM,46.4,44.6,93,29.97,10.0,West,4.6,-,N/A,,Clear,270,2013-03-31 12:55:00
8:15 AM,46.4,46.4,100,29.96,10.0,Calm,Calm,-,N/A,,Clear,0,2013-03-31 13:15:00
8:35 AM,48.2,46.4,93,29.97,10.0,NW,5.8,-,N/A,,Clear,310,2013-03-31 13:35:00
8:55 AM,48.2,46.4,93,29.95,10.0,NW,6.9,-,N/A,,Clear,310,2013-03-31 13:55:00
9:15 AM,50.0,48.2,94,29.94,10.0,NW,8.1,-,N/A,,Clear,320,2013-03-31 14:15:00
9:35 AM,53.6,44.6,72,29.94,10.0,NW,6.9,-,N/A,,Clear,320,2013-03-31 14:35:00
9:55 AM,53.6,44.6,72,29.94,10.0,NNW,8.1,-,N/A,,Clear,330,2013-03-31 14:55:00
10:15 AM,55.4,42.8,63,29.94,10.0,NW,9.2,-,N/A,,Clear,320,2013-03-31 15:15:00
10:35 AM,57.2,42.8,59,29.94,10.0,NW,9.2,-,N/A,,Clear,310,2013-03-31 15:35:00
10:55 AM,59.0,42.8,55,29.94,10.0,WNW,9.2,-,N/A,,Clear,300,2013-03-31 15:55:00
11:35 AM,59.0,42.8,55,29.94,10.0,NW,6.9,-,N/A,,Clear,320,2013-03-31 16:35:00
11:55 AM,60.8,42.8,52,29.93,10.0,NW,6.9,-,N/A,,Clear,320,2013-03-31 16:55:00
12:15 PM,60.8,41.0,48,29.93,10.0,West,8.1,-,N/A,,Clear,260,2013-03-31 17:15:00
12:35 PM,62.6,39.2,42,29.93,10.0,WNW,9.2,-,N/A,,Clear,290,2013-03-31 17:35:00
12:55 PM,62.6,37.4,39,29.93,10.0,WNW,11.5,-,N/A,,Clear,290,2013-03-31 17:55:00
1:15 PM,64.4,37.4,37,29.93,10.0,West,12.7,17.3,N/A,,Clear,280,2013-03-31 18:15:00
1:35 PM,64.4,39.2,40,29.93,10.0,West,16.1,20.7,N/A,,Scattered Clouds,280,2013-03-31 18:35:00
1:55 PM,62.6,35.6,37,29.92,10.0,West,10.4,18.4,N/A,,Scattered Clouds,260,2013-03-31 18:55:00
2:15 PM,64.4,37.4,37,29.92,10.0,West,13.8,18.4,N/A,,Scattered Clouds,270,2013-03-31 19:15:00
2:35 PM,64.4,35.6,34,29.92,10.0,West,10.4,-,N/A,,Scattered Clouds,270,2013-03-31 19:35:00
2:55 PM,66.2,35.6,32,29.91,10.0,West,10.4,18.4,N/A,,Scattered Clouds,280,2013-03-31 19:55:00
3:15 PM,68.0,35.6,30,29.91,10.0,West,18.4,-,N/A,,Scattered Clouds,270,2013-03-31 20:15:00
3:35 PM,66.2,33.8,30,29.91,10.0,West,15.0,19.6,N/A,,Scattered Clouds,280,2013-03-31 20:35:00
3:55 PM,64.4,41.0,42,29.91,10.0,NW,15.0,-,N/A,,Mostly Cloudy,310,2013-03-31 20:55:00
4:15 PM,64.4,37.4,37,29.91,10.0,West,15.0,20.7,N/A,,Scattered Clouds,280,2013-03-31 21:15:00
4:35 PM,62.6,39.2,42,29.92,10.0,NW,10.4,-,N/A,,Scattered Clouds,320,2013-03-31 21:35:00
5:15 PM,60.8,37.4,42,29.93,10.0,NW,16.1,21.9,N/A,,Scattered Clouds,320,2013-03-31 22:15:00
5:35 PM,60.8,35.6,39,29.93,10.0,NW,15.0,-,N/A,,Scattered Clouds,310,2013-03-31 22:35:00
5:55 PM,60.8,32.0,34,29.93,10.0,NW,13.8,19.6,N/A,,Scattered Clouds,310,2013-03-31 22:55:00
6:15 PM,60.8,33.8,36,29.93,10.0,NNW,11.5,18.4,N/A,,Clear,330,2013-03-31 23:15:00
6:35 PM,59.0,32.0,36,29.94,10.0,NW,11.5,-,N/A,,Clear,310,2013-03-31 23:35:00
6:55 PM,59.0,32.0,36,29.94,10.0,NNW,10.4,-,N/A,,Clear,330,2013-03-31 23:55:00
7:15 PM,57.2,32.0,38,29.95,10.0,NNW,8.1,-,N/A,,Clear,330,2013-04-01 00:15:00
7:35 PM,55.4,32.0,41,29.95,10.0,NW,5.8,-,N/A,,Clear,320,2013-04-01 00:35:00
7:55 PM,53.6,32.0,44,29.95,10.0,NNW,6.9,-,N/A,,Clear,330,2013-04-01 00:55:00
8:15 PM,53.6,32.0,44,29.96,10.0,NW,3.5,-,N/A,,Clear,320,2013-04-01 01:15:00
8:35 PM,51.8,32.0,47,29.96,10.0,Calm,Calm,-,N/A,,Clear,0,2013-04-01 01:35:00
9:15 PM,51.8,32.0,47,29.96,10.0,Calm,Calm,-,N/A,,Clear,0,2013-04-01 02:15:00
9:35 PM,50.0,32.0,50,29.97,10.0,Calm,Calm,-,N/A,,Clear,0,2013-04-01 02:35:00
9:55 PM,51.8,35.6,54,29.97,10.0,Calm,Calm,-,N/A,,Clear,0,2013-04-01 02:55:00
10:15 PM,50.0,32.0,50,29.97,10.0,WNW,3.5,-,N/A,,Clear,300,2013-04-01 03:15:00
10:35 PM,50.0,32.0,50,29.97,10.0,Calm,Calm,-,N/A,,Clear,0,2013-04-01 03:35:00
10:55 PM,44.6,32.0,61,29.97,10.0,Calm,Calm,-,N/A,,Clear,0,2013-04-01 03:55:00
11:15 PM,46.4,32.0,57,29.96,10.0,Calm,Calm,-,N/A,,Clear,0,2013-04-01 04:15:00
11:55 PM,41.0,33.8,76,29.98,10.0,NW,3.5,-,N/A,,Clear,320,2013-04-01 04:55:00